sensor_id;sensor_type;location;lat;lon;timestamp;temperature;humidity
49549;DHT22;35450;44.518;7.466;2024-02-15T07:05:47;7.80;89.50
49549;DHT22;35450;44.518;7.466;2024-02-15T07:08:51;7.60;90.30
49549;DHT22;35450;44.518;7.466;2024-02-15T07:11:59;7.70;90.40
49549;DHT22;35450;44.518;7.466;2024-02-15T07:15:04;7.80;90.40
49549;DHT22;35450;44.518;7.466;2024-02-15T07:18:12;8.00;90.30
49549;DHT22;35450;44.518;7.466;2024-02-15T07:21:20;8.10;90.30
49549;DHT22;35450;44.518;7.466;2024-02-15T07:24:29;8.10;90.00
49549;DHT22;35450;44.518;7.466;2024-02-15T07:27:33;8.30;90.00
49549;DHT22;35450;44.518;7.466;2024-02-15T07:30:38;8.30;90.00
49549;DHT22;35450;44.518;7.466;2024-02-15T07:33:42;8.20;90.00
49549;DHT22;35450;44.518;7.466;2024-02-15T07:36:46;8.10;91.30
49549;DHT22;35450;44.518;7.466;2024-02-15T07:39:50;8.20;90.80
49549;DHT22;35450;44.518;7.466;2024-02-15T07:42:56;8.30;89.50
49549;DHT22;35450;44.518;7.466;2024-02-15T07:46:02;8.50;88.70
49549;DHT22;35450;44.518;7.466;2024-02-15T07:49:06;8.60;88.60
49549;DHT22;35450;44.518;7.466;2024-02-15T07:52:12;8.70;88.80
49549;DHT22;35450;44.518;7.466;2024-02-15T07:55:17;8.80;89.30
49549;DHT22;35450;44.518;7.466;2024-02-15T07:58:21;9.00;90.20
49549;DHT22;35450;44.518;7.466;2024-02-15T08:01:26;9.00;90.20
49549;DHT22;35450;44.518;7.466;2024-02-15T08:04:30;9.00;90.10
49549;DHT22;35450;44.518;7.466;2024-02-15T08:07:34;9.10;90.30
49549;DHT22;35450;44.518;7.466;2024-02-15T08:10:40;9.10;90.80
49549;DHT22;35450;44.518;7.466;2024-02-15T08:13:46;9.10;91.00
49549;DHT22;35450;44.518;7.466;2024-02-15T08:16:53;9.10;91.00
49549;DHT22;35450;44.518;7.466;2024-02-15T08:19:59;9.20;90.60
49549;DHT22;35450;44.518;7.466;2024-02-15T08:23:03;9.30;90.20
49549;DHT22;35450;44.518;7.466;2024-02-15T08:26:08;9.40;90.10
49549;DHT22;35450;44.518;7.466;2024-02-15T08:29:14;9.50;90.00
49549;DHT22;35450;44.518;7.466;2024-02-15T08:32:18;9.50;87.50
49549;DHT22;35450;44.518;7.466;2024-02-15T08:35:22;9.60;85.20
49549;DHT22;35450;44.518;7.466;2024-02-15T08:38:27;9.70;84.30
49549;DHT22;35450;44.518;7.466;2024-02-15T08:41:31;9.80;83.20
49549;DHT22;35450;44.518;7.466;2024-02-15T08:44:35;9.80;83.60
49549;DHT22;35450;44.518;7.466;2024-02-15T08:47:41;9.80;83.20
49549;DHT22;35450;44.518;7.466;2024-02-15T08:50:45;9.80;82.80
49549;DHT22;35450;44.518;7.466;2024-02-15T08:53:49;9.80;82.60
49549;DHT22;35450;44.518;7.466;2024-02-15T08:56:53;9.90;83.00
49549;DHT22;35450;44.518;7.466;2024-02-15T08:59:57;10.00;83.20
49549;DHT22;35450;44.518;7.466;2024-02-15T09:03:01;10.00;83.30
49549;DHT22;35450;44.518;7.466;2024-02-15T09:06:06;10.00;82.90
49549;DHT22;35450;44.518;7.466;2024-02-15T09:09:11;10.10;83.00
49549;DHT22;35450;44.518;7.466;2024-02-15T09:12:14;10.10;83.70
49549;DHT22;35450;44.518;7.466;2024-02-15T09:15:18;10.20;84.40
49549;DHT22;35450;44.518;7.466;2024-02-15T09:18:23;10.20;84.70
49549;DHT22;35450;44.518;7.466;2024-02-15T09:21:27;10.20;84.80
49549;DHT22;35450;44.518;7.466;2024-02-15T09:24:33;10.30;85.10
49549;DHT22;35450;44.518;7.466;2024-02-15T09:27:38;10.30;85.90
49549;DHT22;35450;44.518;7.466;2024-02-15T09:30:42;10.30;86.10
49549;DHT22;35450;44.518;7.466;2024-02-15T09:33:45;10.30;85.90
49549;DHT22;35450;44.518;7.466;2024-02-15T09:36:50;10.30;85.60
49549;DHT22;35450;44.518;7.466;2024-02-15T09:39:54;10.40;86.30
49549;DHT22;35450;44.518;7.466;2024-02-15T09:42:58;10.40;86.50
49549;DHT22;35450;44.518;7.466;2024-02-15T09:46:03;10.40;86.90
49549;DHT22;35450;44.518;7.466;2024-02-15T09:49:08;10.30;87.10
49549;DHT22;35450;44.518;7.466;2024-02-15T09:52:12;10.40;87.50
49549;DHT22;35450;44.518;7.466;2024-02-15T09:55:20;10.40;87.40
49549;DHT22;35450;44.518;7.466;2024-02-15T09:58:27;10.50;87.50
49549;DHT22;35450;44.518;7.466;2024-02-15T10:01:31;10.50;87.50
49549;DHT22;35450;44.518;7.466;2024-02-15T10:04:39;10.50;87.30
49549;DHT22;35450;44.518;7.466;2024-02-15T10:07:45;10.50;86.70
49549;DHT22;35450;44.518;7.466;2024-02-15T10:11:05;10.50;86.50
49549;DHT22;35450;44.518;7.466;2024-02-15T10:14:11;10.50;86.00
49549;DHT22;35450;44.518;7.466;2024-02-15T10:17:15;10.50;85.90
49549;DHT22;35450;44.518;7.466;2024-02-15T10:20:20;10.50;86.00
49549;DHT22;35450;44.518;7.466;2024-02-15T10:23:24;10.60;86.20
49549;DHT22;35450;44.518;7.466;2024-02-15T10:26:28;10.60;86.10
49549;DHT22;35450;44.518;7.466;2024-02-15T10:29:33;10.70;84.80
49549;DHT22;35450;44.518;7.466;2024-02-15T10:32:38;10.70;84.50
49549;DHT22;35450;44.518;7.466;2024-02-15T10:35:42;10.80;83.70
49549;DHT22;35450;44.518;7.466;2024-02-15T10:38:47;10.80;84.40
49549;DHT22;35450;44.518;7.466;2024-02-15T10:41:52;10.80;85.30
49549;DHT22;35450;44.518;7.466;2024-02-15T10:44:57;10.80;85.30
49549;DHT22;35450;44.518;7.466;2024-02-15T10:48:05;10.90;84.10
49549;DHT22;35450;44.518;7.466;2024-02-15T10:51:10;10.90;82.20
49549;DHT22;35450;44.518;7.466;2024-02-15T10:54:40;10.90;81.30
49549;DHT22;35450;44.518;7.466;2024-02-15T10:57:49;11.00;81.90
49549;DHT22;35450;44.518;7.466;2024-02-15T11:00:55;11.00;83.20
49549;DHT22;35450;44.518;7.466;2024-02-15T11:04:05;11.10;83.50
49549;DHT22;35450;44.518;7.466;2024-02-15T11:07:11;11.10;83.60
49549;DHT22;35450;44.518;7.466;2024-02-15T11:10:17;11.20;82.60
49549;DHT22;35450;44.518;7.466;2024-02-15T11:13:21;11.20;81.90
49549;DHT22;35450;44.518;7.466;2024-02-15T11:16:41;11.20;81.70
49549;DHT22;35450;44.518;7.466;2024-02-15T11:19:45;11.20;80.90
49549;DHT22;35450;44.518;7.466;2024-02-15T11:22:56;11.20;81.60
49549;DHT22;35450;44.518;7.466;2024-02-15T11:26:01;11.30;81.80
49549;DHT22;35450;44.518;7.466;2024-02-15T11:29:06;11.30;82.10
49549;DHT22;35450;44.518;7.466;2024-02-15T11:32:34;11.30;81.60
49549;DHT22;35450;44.518;7.466;2024-02-15T11:36:07;11.30;82.80
49549;DHT22;35450;44.518;7.466;2024-02-15T11:39:39;11.30;82.00
49549;DHT22;35450;44.518;7.466;2024-02-15T11:42:44;11.40;83.30
49549;DHT22;35450;44.518;7.466;2024-02-15T11:45:57;11.40;83.50
49549;DHT22;35450;44.518;7.466;2024-02-15T11:49:03;11.40;81.80
49549;DHT22;35450;44.518;7.466;2024-02-15T11:52:10;11.50;81.30
49549;DHT22;35450;44.518;7.466;2024-02-15T11:55:18;11.50;82.70
49549;DHT22;35450;44.518;7.466;2024-02-15T11:58:23;11.50;84.10
49549;DHT22;35450;44.518;7.466;2024-02-15T12:01:34;11.50;84.20
49549;DHT22;35450;44.518;7.466;2024-02-15T12:04:57;11.60;84.60
49549;DHT22;35450;44.518;7.466;2024-02-15T12:08:20;11.60;84.20
49549;DHT22;35450;44.518;7.466;2024-02-15T12:11:42;11.60;84.10
49549;DHT22;35450;44.518;7.466;2024-02-15T12:15:05;11.60;84.20
49549;DHT22;35450;44.518;7.466;2024-02-15T12:18:28;11.70;84.50
49549;DHT22;35450;44.518;7.466;2024-02-15T12:21:49;11.70;84.20
49549;DHT22;35450;44.518;7.466;2024-02-15T12:25:00;11.70;84.40
49549;DHT22;35450;44.518;7.466;2024-02-15T12:28:04;11.80;84.90
49549;DHT22;35450;44.518;7.466;2024-02-15T12:31:10;11.80;84.00
49549;DHT22;35450;44.518;7.466;2024-02-15T12:34:20;11.70;82.40
49549;DHT22;35450;44.518;7.466;2024-02-15T12:37:24;11.70;82.10
49549;DHT22;35450;44.518;7.466;2024-02-15T12:40:33;11.80;81.20
49549;DHT22;35450;44.518;7.466;2024-02-15T12:43:38;11.90;81.90
49549;DHT22;35450;44.518;7.466;2024-02-15T12:46:42;11.90;81.50
49549;DHT22;35450;44.518;7.466;2024-02-15T12:49:48;11.90;81.70
49549;DHT22;35450;44.518;7.466;2024-02-15T12:52:56;12.00;82.30
49549;DHT22;35450;44.518;7.466;2024-02-15T12:56:05;12.00;82.10
49549;DHT22;35450;44.518;7.466;2024-02-15T12:59:10;11.90;80.70
49549;DHT22;35450;44.518;7.466;2024-02-15T13:02:14;11.90;80.20
49549;DHT22;35450;44.518;7.466;2024-02-15T13:05:18;12.00;80.90
49549;DHT22;35450;44.518;7.466;2024-02-15T13:08:23;12.00;79.80
49549;DHT22;35450;44.518;7.466;2024-02-15T13:11:27;12.00;81.30
49549;DHT22;35450;44.518;7.466;2024-02-15T13:14:32;12.00;82.10
49549;DHT22;35450;44.518;7.466;2024-02-15T13:17:38;12.00;81.00
49549;DHT22;35450;44.518;7.466;2024-02-15T13:20:43;12.10;80.90
49549;DHT22;35450;44.518;7.466;2024-02-15T13:23:47;12.10;81.40
49549;DHT22;35450;44.518;7.466;2024-02-15T13:26:52;12.10;82.10
49549;DHT22;35450;44.518;7.466;2024-02-15T13:29:55;12.20;80.70
49549;DHT22;35450;44.518;7.466;2024-02-15T13:32:59;12.20;80.60
49549;DHT22;35450;44.518;7.466;2024-02-15T13:36:05;12.20;81.20
49549;DHT22;35450;44.518;7.466;2024-02-15T13:39:14;12.20;81.00
49549;DHT22;35450;44.518;7.466;2024-02-15T13:42:18;12.20;80.60
49549;DHT22;35450;44.518;7.466;2024-02-15T13:45:23;12.20;80.80
49549;DHT22;35450;44.518;7.466;2024-02-15T13:48:30;12.30;81.50
49549;DHT22;35450;44.518;7.466;2024-02-15T13:51:34;12.30;79.30
49549;DHT22;35450;44.518;7.466;2024-02-15T13:54:38;12.30;80.00
49549;DHT22;35450;44.518;7.466;2024-02-15T13:57:43;12.30;79.60
49549;DHT22;35450;44.518;7.466;2024-02-15T14:00:48;12.40;79.40
49549;DHT22;35450;44.518;7.466;2024-02-15T14:03:52;12.40;80.00
49549;DHT22;35450;44.518;7.466;2024-02-15T14:06:56;12.40;79.50
49549;DHT22;35450;44.518;7.466;2024-02-15T14:10:02;12.50;79.60
49549;DHT22;35450;44.518;7.466;2024-02-15T14:13:06;12.50;78.90
49549;DHT22;35450;44.518;7.466;2024-02-15T14:16:15;12.50;78.50
49549;DHT22;35450;44.518;7.466;2024-02-15T14:19:20;12.50;78.60
49549;DHT22;35450;44.518;7.466;2024-02-15T14:22:25;12.60;78.70
49549;DHT22;35450;44.518;7.466;2024-02-15T14:25:33;12.60;78.20
49549;DHT22;35450;44.518;7.466;2024-02-15T14:28:37;12.60;77.90
49549;DHT22;35450;44.518;7.466;2024-02-15T14:31:44;12.60;78.00
49549;DHT22;35450;44.518;7.466;2024-02-15T14:35:27;12.60;78.20
49549;DHT22;35450;44.518;7.466;2024-02-15T14:38:34;12.60;78.50
49549;DHT22;35450;44.518;7.466;2024-02-15T14:41:38;12.60;77.80
49549;DHT22;35450;44.518;7.466;2024-02-15T14:44:42;12.70;78.50
49549;DHT22;35450;44.518;7.466;2024-02-15T14:47:47;12.70;78.60
49549;DHT22;35450;44.518;7.466;2024-02-15T14:50:51;12.60;78.50
49549;DHT22;35450;44.518;7.466;2024-02-15T14:53:55;12.70;78.70
49549;DHT22;35450;44.518;7.466;2024-02-15T14:56:59;12.70;78.60
49549;DHT22;35450;44.518;7.466;2024-02-15T15:00:06;12.70;78.60
49549;DHT22;35450;44.518;7.466;2024-02-15T15:03:17;12.60;78.60
49549;DHT22;35450;44.518;7.466;2024-02-15T15:06:21;12.70;78.90
49549;DHT22;35450;44.518;7.466;2024-02-15T15:09:44;12.70;79.20
49549;DHT22;35450;44.518;7.466;2024-02-15T15:13:06;12.70;79.70
49549;DHT22;35450;44.518;7.466;2024-02-15T15:16:11;12.80;79.50
49549;DHT22;35450;44.518;7.466;2024-02-15T15:19:21;12.70;79.40
49549;DHT22;35450;44.518;7.466;2024-02-15T15:22:25;12.70;80.10
49549;DHT22;35450;44.518;7.466;2024-02-15T15:25:30;12.80;80.90
49549;DHT22;35450;44.518;7.466;2024-02-15T15:28:34;12.80;80.80
49549;DHT22;35450;44.518;7.466;2024-02-15T15:31:38;12.80;81.20
49549;DHT22;35450;44.518;7.466;2024-02-15T15:34:42;12.70;82.50
49549;DHT22;35450;44.518;7.466;2024-02-15T15:37:46;12.70;81.80
49549;DHT22;35450;44.518;7.466;2024-02-15T15:40:50;12.60;82.10
49549;DHT22;35450;44.518;7.466;2024-02-15T15:43:54;12.60;82.20
49549;DHT22;35450;44.518;7.466;2024-02-15T15:46:59;12.70;82.10
49549;DHT22;35450;44.518;7.466;2024-02-15T15:50:03;12.60;82.10
49549;DHT22;35450;44.518;7.466;2024-02-15T15:53:10;12.60;82.50
49549;DHT22;35450;44.518;7.466;2024-02-15T15:56:17;12.70;83.30
49549;DHT22;35450;44.518;7.466;2024-02-15T15:59:20;12.60;83.40
49549;DHT22;35450;44.518;7.466;2024-02-15T16:02:25;12.50;83.60
49549;DHT22;35450;44.518;7.466;2024-02-15T16:05:31;12.50;83.30
49549;DHT22;35450;44.518;7.466;2024-02-15T16:08:35;12.50;83.40
49549;DHT22;35450;44.518;7.466;2024-02-15T16:11:39;12.40;84.20
49549;DHT22;35450;44.518;7.466;2024-02-15T16:14:43;12.40;85.00
49549;DHT22;35450;44.518;7.466;2024-02-15T16:17:48;12.40;85.10
49549;DHT22;35450;44.518;7.466;2024-02-15T16:20:52;12.40;86.10
49549;DHT22;35450;44.518;7.466;2024-02-15T16:23:56;12.30;87.50
49549;DHT22;35450;44.518;7.466;2024-02-15T16:27:00;12.30;87.50
49549;DHT22;35450;44.518;7.466;2024-02-15T16:30:10;12.20;88.90
49549;DHT22;35450;44.518;7.466;2024-02-15T16:33:17;12.20;89.40
49549;DHT22;35450;44.518;7.466;2024-02-15T16:36:21;12.10;89.70
49549;DHT22;35450;44.518;7.466;2024-02-15T16:39:26;12.00;88.50
49549;DHT22;35450;44.518;7.466;2024-02-15T16:42:30;11.90;88.00
49549;DHT22;35450;44.518;7.466;2024-02-15T16:45:37;11.80;89.80
49549;DHT22;35450;44.518;7.466;2024-02-15T16:48:43;11.80;89.30
49549;DHT22;35450;44.518;7.466;2024-02-15T16:51:47;11.70;88.10
49549;DHT22;35450;44.518;7.466;2024-02-15T16:54:51;11.60;89.00
49549;DHT22;35450;44.518;7.466;2024-02-15T16:57:55;11.50;88.90
49549;DHT22;35450;44.518;7.466;2024-02-15T17:01:11;11.40;88.80
49549;DHT22;35450;44.518;7.466;2024-02-15T17:04:15;11.20;88.70
49549;DHT22;35450;44.518;7.466;2024-02-15T17:07:20;11.10;88.80
49549;DHT22;35450;44.518;7.466;2024-02-15T17:10:25;11.00;89.30
49549;DHT22;35450;44.518;7.466;2024-02-15T17:13:29;10.90;89.50
49549;DHT22;35450;44.518;7.466;2024-02-15T17:16:34;10.80;89.60
49549;DHT22;35450;44.518;7.466;2024-02-15T17:19:38;10.80;89.80
49549;DHT22;35450;44.518;7.466;2024-02-15T17:22:42;10.80;90.00
49549;DHT22;35450;44.518;7.466;2024-02-15T17:25:46;10.80;89.90
49549;DHT22;35450;44.518;7.466;2024-02-15T17:28:50;10.80;89.60
49549;DHT22;35450;44.518;7.466;2024-02-15T17:31:57;10.70;89.30
49549;DHT22;35450;44.518;7.466;2024-02-15T17:35:01;10.60;89.40
49549;DHT22;35450;44.518;7.466;2024-02-15T17:38:05;10.60;89.50
49549;DHT22;35450;44.518;7.466;2024-02-15T17:41:11;10.50;89.50
49549;DHT22;35450;44.518;7.466;2024-02-15T17:44:15;10.40;90.00
49549;DHT22;35450;44.518;7.466;2024-02-15T17:47:20;10.30;90.20
49549;DHT22;35450;44.518;7.466;2024-02-15T17:50:24;10.20;90.20
49549;DHT22;35450;44.518;7.466;2024-02-15T17:53:30;10.30;90.20
49549;DHT22;35450;44.518;7.466;2024-02-15T17:56:35;10.20;90.20
49549;DHT22;35450;44.518;7.466;2024-02-15T17:59:39;10.20;90.50
49549;DHT22;35450;44.518;7.466;2024-02-15T18:02:43;10.20;90.60
49549;DHT22;35450;44.518;7.466;2024-02-15T18:05:51;10.10;90.70
49549;DHT22;35450;44.518;7.466;2024-02-15T18:08:55;10.00;90.70
49549;DHT22;35450;44.518;7.466;2024-02-15T18:11:59;10.00;90.80
49549;DHT22;35450;44.518;7.466;2024-02-15T18:15:03;10.10;90.70
49549;DHT22;35450;44.518;7.466;2024-02-15T18:18:07;10.00;90.70
49549;DHT22;35450;44.518;7.466;2024-02-15T18:21:11;9.90;90.80
49549;DHT22;35450;44.518;7.466;2024-02-15T18:24:15;9.90;90.90
49549;DHT22;35450;44.518;7.466;2024-02-15T18:27:19;9.90;91.00
49549;DHT22;35450;44.518;7.466;2024-02-15T18:30:24;9.90;91.10
49549;DHT22;35450;44.518;7.466;2024-02-15T18:33:34;9.90;91.00
49549;DHT22;35450;44.518;7.466;2024-02-15T18:36:45;10.00;91.10
49549;DHT22;35450;44.518;7.466;2024-02-15T18:39:49;10.00;91.30
49549;DHT22;35450;44.518;7.466;2024-02-15T18:42:54;10.00;91.00
49549;DHT22;35450;44.518;7.466;2024-02-15T18:45:58;10.10;90.90
49549;DHT22;35450;44.518;7.466;2024-02-15T18:49:02;10.20;90.90
49549;DHT22;35450;44.518;7.466;2024-02-15T18:52:06;10.10;90.80
49549;DHT22;35450;44.518;7.466;2024-02-15T18:55:10;10.10;90.90
49549;DHT22;35450;44.518;7.466;2024-02-15T18:58:15;10.10;90.90
49549;DHT22;35450;44.518;7.466;2024-02-15T19:01:21;10.00;91.00
49549;DHT22;35450;44.518;7.466;2024-02-15T19:04:27;10.00;91.10
49549;DHT22;35450;44.518;7.466;2024-02-15T19:07:31;10.00;91.10
49549;DHT22;35450;44.518;7.466;2024-02-15T19:10:35;10.00;91.20
49549;DHT22;35450;44.518;7.466;2024-02-15T19:13:39;10.00;91.20
49549;DHT22;35450;44.518;7.466;2024-02-15T19:16:44;10.00;91.20
49549;DHT22;35450;44.518;7.466;2024-02-15T19:19:48;10.00;91.20
49549;DHT22;35450;44.518;7.466;2024-02-15T19:22:52;10.00;91.30
49549;DHT22;35450;44.518;7.466;2024-02-15T19:25:56;10.00;91.20
49549;DHT22;35450;44.518;7.466;2024-02-15T19:29:00;10.00;91.30
49549;DHT22;35450;44.518;7.466;2024-02-15T19:32:05;9.90;91.50
49549;DHT22;35450;44.518;7.466;2024-02-15T19:35:09;10.00;91.50
49549;DHT22;35450;44.518;7.466;2024-02-15T19:38:13;9.90;91.60
